AirNav   Everest Fuels
 
 596 users online  

4CA2 Funny Farm Airport
Brentwood, California, USA

GOING TO BRENTWOOD?


FAA INFORMATION EFFECTIVE 05 DECEMBER 2019

Location

FAA Identifier: 4CA2
Lat/Long: 37-56-48.7200N 121-38-50.8300W
37-56.812000N 121-38.847167W
37.9468667,-121.6474528
(estimated)
Elevation: 29 ft. / 9 m (estimated)
Variation: 16E (1995)
From city: 3 miles NE of BRENTWOOD, CA
Time zone: UTC -8 (UTC -7 during Daylight Saving Time)
Zip code: 94513

Airport Operations

Airport use: Private use. Permission required prior to landing
Activation date: 09/1999
Control tower: no
ARTCC: OAKLAND CENTER
FSS: OAKLAND FLIGHT SERVICE STATION
Attendance: DAYLIGHT HOURS
Wind indicator: yes
Segmented circle: no

Airport Communications

WX AWOS-3 at C83 (7 nm S): 123.775 (925-634-0906)
WX AWOS-AV at O88 (15 nm N): 127.075 (707-374-5396)
WX ASOS at LVK (17 nm SW): PHONE 925-606-5412
WX AWOS-3 at TCY (18 nm SE): 118.375 (209-831-4335)
WX ASOS at CCR (20 nm W): PHONE 925-689-2077
WX ASOS at SCK (20 nm E): PHONE 209-982-4270

Nearby radio navigation aids

VOR radial/distance  VOR name  Freq  Var
CCRr090/19.7CONCORD VOR/DME117.0017E
SACr172/30.2SACRAMENTO VORTAC115.2017E
OAKr047/30.3OAKLAND VOR/DME116.8017E
LINr239/31.4LINDEN VOR/DME114.8017E
SGDr095/37.0SCAGGS ISLAND VORTAC112.1017E
SJCr006/37.1SAN JOSE VOR/DME114.1016E
MODr283/37.9MODESTO VOR/DME114.6017E
SFOr043/39.7SAN FRANCISCO VOR/DME115.8017E

Airport Services

Runway Information

Runway 17/35

Dimensions: 1880 x 20 ft. / 573 x 6 m
Surface: asphalt
RUNWAY 17  RUNWAY 35
Traffic pattern: rightleft
Obstructions: 50 ft. trees, 100 ft. from runway50 ft. trees, 100 ft. from runway

Airport Ownership and Management from official FAA records

Ownership: Privately-owned
Owner: DAVID S. BEHNE
2651 PENNY LN
BRENTWOOD, CA 94513-5234
Phone (925) 580-1433
Manager: ERIC BEHNE
2651 PENNY LN
BRENTWOOD, CA 94513-5234
Phone (925) 580-1433

Airport Operational Statistics

Aircraft based on the field: 5
Single engine airplanes: 5
    
Aircraft operations: avg 50/month
83% local general aviation
17% transient general aviation

Additional Remarks

100 FT WATER TOWER 2.5 MILES SW OF ARPT.
FOR CD CTC NORCAL APCH AT 916-361-0516.

Instrument Procedures

There are no published instrument procedures at 4CA2.

Some nearby airports with instrument procedures:

C83 - Byron Airport (7 nm S)
O88 - Rio Vista Municipal Airport (15 nm N)
KLVK - Livermore Municipal Airport (17 nm SW)
KTCY - Tracy Municipal Airport (18 nm SE)
KCCR - Buchanan Field Airport (20 nm W)
KSCK - Stockton Metropolitan Airport (20 nm E)
 
Loc | Ops | Rwys | IFR | FBO | Links
Com | Nav | Svcs | Stats | Notes
Area around 4CA2 (Funny Farm Airport)
 
Road maps at: MapQuest Bing Google
 
Aerial photo
WARNING: Photo may not be current or correct
Aerial photo of 4CA2 (Funny Farm Airport)
Do you have a better or more recent aerial photo of Funny Farm Airport that you would like to share? If so, please send us your photo.

 
Sectional chart

 
Airport distance calculator
Flying to Funny Farm Airport? Find the distance to fly.

From to 4CA2

Sunrise and sunset
Times for 14-Dec-2019
 Local
(UTC-8)
 Zulu
(UTC)
Morning civil twilight06:4614:46
Sunrise07:1615:16
Sunset16:4700:47
Evening civil twilight17:1601:16

Current date and time
Zulu (UTC)  14-Dec-2019 13:16:21
Local (UTC-8)  14-Dec-2019 05:16:21
 
METAR
KC83 
7nm S 
141255Z AUTO 23008KT 10SM CLR 10/08 A3005 RMK AO2
KLVK 
17nm SW 
141253Z AUTO 25006KT 10SM SCT018 09/08 A3006 RMK AO2 SLP176 T00940083
KTCY 
18nm SE 
141255Z AUTO 25010G16KT 10SM CLR 11/09 A3005 RMK A01
KCCR 
19nm W 
141302Z AUTO 00000KT 10SM RA BKN015 12/08 A3006 RMK AO2 P0000 T01170078
TAF
KLVK 
17nm SW 
141133Z 1412/1512 25008KT P6SM BKN025 BKN150 FM141900 26010KT P6SM SCT030 SCT050 FM150400 26007KT P6SM SCT050 SCT200
KSCK 
21nm E 
141125Z 1412/1512 28006KT P6SM SCT080
NOTAMs
Click for the latest NOTAMs
NOTAMs are issued by the DoD/FAA and will open in a separate window not controlled by AirNav.

 

 
 

Would you like to see your business listed on this page?

 If your business provides an interesting product or service to pilots, flight crews, aircraft, or users of the Funny Farm Airport, you should consider listing it here.  To start the listing process, click on the button below
 
Add a business
 

Other Pages about Funny Farm Airport

Update a link
 
Copyright © AirNav, LLC. All rights reserved. Privacy Policy  Contact